Flagstaff, AZ (86001)

1:20 AM MST on September 18, 2014 (GMT -0700)
Bow and Arrow | Change Station
CLOSE
Current Station
Personal Weather Station
Location: Flagstaff, AZ
Elevation: 6900 ft
Nearby Weather Stations

Elev 6900 ft 35.16 °N, 111.66 °W | Updated 1 second ago

Clear
Clear
50.5 °F
Feels Like 50.5 °F
N
0.0
Wind Variable Wind from ESE
Gusts 0.0 mph

Today
High -- | Low -- °F
--% Chance of Precip.
Yesterday
High -- | Low -- °F
Precip. -- in
6:11 AM 6:29 PM
Waning Crescent, 29% visible
Pressure 29.94 in
Visibility 10.0 miles
Clouds Clear
Dew Point 28 °F
Humidity 41%
Rainfall 0.00 in
Snow Depth Not available.
UV 0 out of 12
Pollen 4.20 out of 12
Air Quality Not available.
Flu Activity Not available.
METAR KFLG 180757Z AUTO 00000KT 10SM CLR 10/08 A3016 RMK AO2 SLP136 T01000083 TSNO

More Conditions Fewer Conditions

Pressure 29.94 in
Visibility 10.0 miles
Clouds Clear
Dew Point 28 °F
Humidity 41%
Rainfall 0.00 in
Snow Depth Not available.
UV 0 out of 12
Pollen 4.20 out of 12
Air Quality Not available.
Flu Activity Not available.
METAR KFLG 180757Z AUTO 00000KT 10SM CLR 10/08 A3016 RMK AO2 SLP136 T01000083 TSNO

More Conditions Fewer Conditions

10-Day Weather Forecast

Almanac

Astronomy

Sep. 18, 2014 Rise Set
Actual Time 6:11 AM MST 6:29 PM MST
Civil Twilight 5:46 AM MST 6:54 PM MST
Nautical Twilight 5:16 AM MST 7:23 PM MST
Astronomical Twilight 4:46 AM MST 7:54 PM MST
Moon 1:15 AM MST 3:14 PM MST
Length of Visible Light 13h 08m
Length of Day
12h 17m
Tomorrow will be 2m 11s shorter.
Waning Crescent, 29% of the Moon is Illuminated
Today
Waning Crescent
Sep 24
New
Oct 1
First Quarter
Oct 8
Full
Oct 15
Last Quarter

Today's Extremes

State Highs State Lows

Community

WunderPhotos

Upload Photos

1,754,307 photos uploaded!

Nearby

Snow Depth

Station Depth Elevation
White Horse Lake 0 in 7180 ft
Maverick Fork 0 in 9200 ft
Snowslide Canyon 0 in 9730 ft
Happy Jack 0 in 7630 ft
Beaver Head 30 in 7990 ft

Earthquake Activity

City Distance Mag. Time & Date
No recent earthquake activity has been reported nearby.
Minimum magnitude displayed is 2.5.

Coastal Water Temperatures

Place Temperature
No Stations Reporting

Nearby Weather Stations